<?xml version="1.0" encoding="UTF-8" standalone="no" ?>
<gpx xmlns="http://www.topografix.com/GPX/1/1" xmlns:xsi="http://www.w3.org/2001/XMLSchema-instance" xsi:schemaLocation="http://www.topografix.com/GPX/1/1 http://www.topografix.com/GPX/1/1/gpx.xsd" version="1.1" creator="VisuGPX - https://www.visugpx.com">
  <metadata>
    <name>GRPMelusine_J1_J4</name>
    <desc><![CDATA[gnerando idor: 13423745_12434211_12434219_12434226_12434235]]></desc>
  </metadata>
  <trk>
    <name><![CDATA[GRPMelusineJ3_ChapelleLysFoussaisP_22km-12434226]]></name>
    <extensions>
      <line xmlns="http://www.topografix.com/GPX/gpx_style/0/2">
        <color>00FF00</color>
        <width>4</width>
      </line>
    </extensions>
    <trkseg>
      <trkpt lat="46.62681" lon="-0.66296">
        <ele>116</ele>
        <time>2023-10-30T09:47:43Z</time>
      </trkpt>
      <trkpt lat="46.62262" lon="-0.6615">
        <ele>126</ele>
        <time>2023-10-30T09:57:18Z</time>
      </trkpt>
      <trkpt lat="46.62003" lon="-0.65798">
        <ele>125</ele>
        <time>2023-10-30T10:05:11Z</time>
      </trkpt>
      <trkpt lat="46.61584" lon="-0.65738">
        <ele>119</ele>
        <time>2023-10-30T10:14:33Z</time>
      </trkpt>
      <trkpt lat="46.61313" lon="-0.6542">
        <ele>117</ele>
        <time>2023-10-30T10:22:17Z</time>
      </trkpt>
      <trkpt lat="46.61" lon="-0.65746">
        <ele>113</ele>
        <time>2023-10-30T10:30:51Z</time>
      </trkpt>
      <trkpt lat="46.60818" lon="-0.65695">
        <ele>103</ele>
        <time>2023-10-30T10:34:58Z</time>
      </trkpt>
      <trkpt lat="46.60806" lon="-0.6554">
        <ele>100</ele>
        <time>2023-10-30T10:37:21Z</time>
      </trkpt>
      <trkpt lat="46.60635" lon="-0.65575">
        <ele>101</ele>
        <time>2023-10-30T10:41:11Z</time>
      </trkpt>
      <trkpt lat="46.60735" lon="-0.65317">
        <ele>111</ele>
        <time>2023-10-30T10:45:43Z</time>
      </trkpt>
      <trkpt lat="46.60546" lon="-0.64931">
        <ele>109</ele>
        <time>2023-10-30T10:52:58Z</time>
      </trkpt>
      <trkpt lat="46.60611" lon="-0.64768">
        <ele>116</ele>
        <time>2023-10-30T10:55:50Z</time>
      </trkpt>
      <trkpt lat="46.60535" lon="-0.64536">
        <ele>116</ele>
        <time>2023-10-30T10:59:46Z</time>
      </trkpt>
      <trkpt lat="46.60912" lon="-0.64313">
        <ele>124</ele>
        <time>2023-10-30T11:08:49Z</time>
      </trkpt>
      <trkpt lat="46.61266" lon="-0.63695">
        <ele>138</ele>
        <time>2023-10-30T11:21:07Z</time>
      </trkpt>
      <trkpt lat="46.6116" lon="-0.63455">
        <ele>125</ele>
        <time>2023-10-30T11:25:28Z</time>
      </trkpt>
      <trkpt lat="46.60942" lon="-0.63515">
        <ele>114</ele>
        <time>2023-10-30T11:30:24Z</time>
      </trkpt>
      <trkpt lat="46.60871" lon="-0.62828">
        <ele>136</ele>
        <time>2023-10-30T11:41:01Z</time>
      </trkpt>
      <trkpt lat="46.59892" lon="-0.62416">
        <ele>115</ele>
        <time>2023-10-30T12:03:41Z</time>
      </trkpt>
      <trkpt lat="46.59349" lon="-0.62622">
        <ele>104</ele>
        <time>2023-10-30T12:16:10Z</time>
      </trkpt>
      <trkpt lat="46.59373" lon="-0.62811">
        <ele>113</ele>
        <time>2023-10-30T12:19:06Z</time>
      </trkpt>
      <trkpt lat="46.59125" lon="-0.62948">
        <ele>99</ele>
        <time>2023-10-30T12:25:00Z</time>
      </trkpt>
      <trkpt lat="46.58931" lon="-0.63704">
        <ele>98</ele>
        <time>2023-10-30T12:37:20Z</time>
      </trkpt>
      <trkpt lat="46.58754" lon="-0.63695">
        <ele>88</ele>
        <time>2023-10-30T12:41:17Z</time>
      </trkpt>
      <trkpt lat="46.58518" lon="-0.64073">
        <ele>89</ele>
        <time>2023-10-30T12:49:05Z</time>
      </trkpt>
      <trkpt lat="46.58205" lon="-0.64219">
        <ele>99</ele>
        <time>2023-10-30T12:56:24Z</time>
      </trkpt>
      <trkpt lat="46.58175" lon="-0.63995">
        <ele>104</ele>
        <time>2023-10-30T12:59:53Z</time>
      </trkpt>
      <trkpt lat="46.57904" lon="-0.64313">
        <ele>100</ele>
        <time>2023-10-30T13:07:38Z</time>
      </trkpt>
      <trkpt lat="46.5781" lon="-0.64098">
        <ele>108</ele>
        <time>2023-10-30T13:11:31Z</time>
      </trkpt>
      <trkpt lat="46.57355" lon="-0.64073">
        <ele>106</ele>
        <time>2023-10-30T13:21:39Z</time>
      </trkpt>
      <trkpt lat="46.56904" lon="-0.63544">
        <ele>83</ele>
        <time>2023-10-30T13:34:32Z</time>
      </trkpt>
      <trkpt lat="46.56877" lon="-0.64279">
        <ele>84</ele>
        <time>2023-10-30T13:45:47Z</time>
      </trkpt>
      <trkpt lat="46.56636" lon="-0.64991">
        <ele>85</ele>
        <time>2023-10-30T13:57:55Z</time>
      </trkpt>
      <trkpt lat="46.56624" lon="-0.6548">
        <ele>79</ele>
        <time>2023-10-30T14:05:24Z</time>
      </trkpt>
      <trkpt lat="46.56842" lon="-0.6603">
        <ele>98</ele>
        <time>2023-10-30T14:15:07Z</time>
      </trkpt>
      <trkpt lat="46.567" lon="-0.66141">
        <ele>93</ele>
        <time>2023-10-30T14:18:42Z</time>
      </trkpt>
      <trkpt lat="46.56759" lon="-0.66562">
        <ele>92</ele>
        <time>2023-10-30T14:25:16Z</time>
      </trkpt>
      <trkpt lat="46.56653" lon="-0.66811">
        <ele>93</ele>
        <time>2023-10-30T14:29:45Z</time>
      </trkpt>
      <trkpt lat="46.56329" lon="-0.67017">
        <ele>115</ele>
        <time>2023-10-30T14:37:37Z</time>
      </trkpt>
      <trkpt lat="46.56146" lon="-0.66733">
        <ele>116</ele>
        <time>2023-10-30T14:43:34Z</time>
      </trkpt>
      <trkpt lat="46.5598" lon="-0.67111">
        <ele>117</ele>
        <time>2023-10-30T14:50:25Z</time>
      </trkpt>
      <trkpt lat="46.56134" lon="-0.67437">
        <ele>116</ele>
        <time>2023-10-30T14:56:28Z</time>
      </trkpt>
      <trkpt lat="46.56116" lon="-0.67789">
        <ele>119</ele>
        <time>2023-10-30T15:01:52Z</time>
      </trkpt>
      <trkpt lat="46.55904" lon="-0.68536">
        <ele>109</ele>
        <time>2023-10-30T15:14:14Z</time>
      </trkpt>
      <trkpt lat="46.55662" lon="-0.69059">
        <ele>105</ele>
        <time>2023-10-30T15:23:52Z</time>
      </trkpt>
      <trkpt lat="46.55706" lon="-0.69548">
        <ele>112</ele>
        <time>2023-10-30T15:31:25Z</time>
      </trkpt>
      <trkpt lat="46.55603" lon="-0.70201">
        <ele>109</ele>
        <time>2023-10-30T15:41:39Z</time>
      </trkpt>
      <trkpt lat="46.55278" lon="-0.70767">
        <ele>96</ele>
        <time>2023-10-30T15:52:56Z</time>
      </trkpt>
      <trkpt lat="46.54694" lon="-0.70098">
        <ele>94</ele>
        <time>2023-10-30T16:09:28Z</time>
      </trkpt>
      <trkpt lat="46.54446" lon="-0.70175">
        <ele>90</ele>
        <time>2023-10-30T16:15:07Z</time>
      </trkpt>
      <trkpt lat="46.53855" lon="-0.69695">
        <ele>86</ele>
        <time>2023-10-30T16:30:10Z</time>
      </trkpt>
      <trkpt lat="46.53714" lon="-0.6978">
        <ele>88</ele>
        <time>2023-10-30T16:33:34Z</time>
      </trkpt>
      <trkpt lat="46.53466" lon="-0.69145">
        <ele>91</ele>
        <time>2023-10-30T16:44:44Z</time>
      </trkpt>
      <trkpt lat="46.53277" lon="-0.6918">
        <ele>92</ele>
        <time>2023-10-30T16:48:58Z</time>
      </trkpt>
      <trkpt lat="46.53241" lon="-0.68776">
        <ele>95</ele>
        <time>2023-10-30T16:55:12Z</time>
      </trkpt>
      <trkpt lat="46.53111" lon="-0.68295">
        <ele>85</ele>
        <time>2023-10-30T17:03:07Z</time>
      </trkpt>
      <trkpt lat="46.52946" lon="-0.68364">
        <ele>88</ele>
        <time>2023-10-30T17:06:56Z</time>
      </trkpt>
    </trkseg>
  </trk>
</gpx>